Flight Track Log - Related Links

Times and Time Zones

All times are in EDT time to prevent confusion due to time zone crossing. See the UAL3272 flight status page for this flight to view local times or setup timezone preferences in your user account.

Time Position Orientation Groundspeed Altitude Reporting Facility
EDT Latitude Longitude Course Direction KTS MPH feet Rate Location/Type
Tue 06:30:28 AM 43.6333 -79.6333 227° Southwest 150 173 3,300  Level Toronto Center
Tue 06:31:28 AM 43.6000 -79.6833 227° Southwest 210 242 5,700 1,850 Climbing Toronto Center
Tue 06:32:28 AM 43.5500 -79.7167 206° Southwest 220 253 7,000 1,900 Climbing Toronto Center
Tue 06:33:28 AM 43.4833 -79.7000 170° South 250 288 9,500 2,500 Climbing Toronto Center
Tue 06:34:28 AM 43.4000 -79.7000 180° South 270 311 12,000 2,350 Climbing Toronto Center
Tue 06:35:28 AM 43.3167 -79.7000 180° South 290 334 14,200 1,450 Climbing Toronto Center
Tue 06:36:28 AM 43.2333 -79.7167 188° South 300 345 14,900 1,100 Climbing Toronto Center
Tue 06:37:28 AM 43.1500 -79.7667 204° Southwest 340 391 16,400 1,500 Climbing Toronto Center
Tue 06:38:28 AM 43.0500 -79.8167 200° South 350 403 17,900 1,550 Climbing Toronto Center
Tue 06:39:28 AM 42.9667 -79.8667 204° Southwest 350 403 19,500 1,550 Climbing Toronto Center
Tue 06:40:28 AM 42.8667 -79.9000 194° South 360 414 21,000 947 Climbing Toronto Center
Tue 06:41:03 AM 42.8272 -79.9406 217° Southwest 363 418 21,000  Level Cleveland Center
Tue 06:42:03 AM 42.7089 -79.9928 198° South 387 445 21,000  Level Cleveland Center
Tue 06:43:03 AM 42.6028 -80.0417 199° South 409 471 21,000  Level Cleveland Center
Tue 06:44:03 AM 42.5156 -80.1239 215° Southwest 391 450 21,000  Level Cleveland Center
Tue 06:45:03 AM 42.4325 -80.2119 218° Southwest 386 444 21,000  Level Cleveland Center
Tue 06:46:03 AM 42.3494 -80.2967 217° Southwest 386 444 21,000  Level Cleveland Center
Tue 06:47:03 AM 42.2683 -80.3867 219° Southwest 386 444 21,000  Level Cleveland Center
Tue 06:48:03 AM 42.1933 -80.4656 218° Southwest 386 444 21,000 -100 Level Cleveland Center
Tue 06:49:03 AM 42.0975 -80.5189 202° Southwest 379 436 20,800 -600 Descending Cleveland Center
Tue 06:50:03 AM 41.9994 -80.5581 197° South 372 428 19,800 -950 Descending Cleveland Center
Tue 06:51:03 AM 41.9017 -80.5972 197° South 372 428 18,900 -1,200 Descending Cleveland Center
Tue 06:52:03 AM 41.8078 -80.6333 196° South 363 418 17,400 -1,300 Descending Cleveland Center
Tue 06:53:03 AM 41.7472 -80.7250 228° Southwest 317 365 16,300 -1,050 Descending Cleveland Center
Tue 06:54:03 AM 41.6908 -80.8306 234° Southwest 324 373 15,300 -1,000 Descending Cleveland Center
Tue 06:55:03 AM 41.6406 -80.9278 235° Southwest 324 373 14,300 -1,012 Descending Cleveland Center
Tue 06:55:26 AM 41.6217 -80.9664 237° Southwest 311 358 13,900 -1,333 Descending Cleveland Center
Tue 06:55:57 AM 41.5964 -81.0081 231° Southwest 312 359 13,100 -2,242 Descending Cleveland Center
Tue 06:56:57 AM 41.5481 -81.1075 237° Southwest 294 338 10,500 -1,537 Descending Cleveland Center
Tue 06:57:58 AM 41.5225 -81.2072 251° West 296 341 10,000 -446 Descending Cleveland Center
Tue 06:58:58 AM 41.5219 -81.3069 270° West 264 304 9,600 -912 Descending Cleveland Center
Tue 07:00:03 AM 41.5214 -81.4014 270° West 257 296 8,100 -1,488 Descending Cleveland Center
Tue 07:01:03 AM 41.5206 -81.4928 269° West 252 290 6,500 -1,590 Descending Cleveland Center
Tue 07:02:00 AM 41.5219 -81.5761 271° West 231 266 5,000 -1,576 Descending Cleveland Center
Tue 07:03:01 AM 41.5214 -81.6592 270° West 222 255 3,400 -942 Descending Cleveland Center
Tue 07:04:01 AM 41.4978 -81.7197 243° Southwest 171 197 3,100 -443 Descending Cleveland Center
Tue 07:05:03 AM 41.4683 -81.7608 226° Southwest 169 194 2,500 -541 Descending Cleveland Center
Tue 07:06:03 AM 41.4492 -81.7908 230° Southwest 92 106 2,000 -550 Descending Cleveland Center
Tue 07:07:03 AM 41.4300 -81.8239 232° Southwest 117 135 1,400 -600 Descending Cleveland Center
Tue 07:09:00 AM 41.4000 -81.8500 252° West  Level FlightAware Approximate
Tue 07:16:00 AM 41.4094 -81.8547 252° West  Level Estimated

Login

Don't have an account? Register now (free) for customized features, flight alerts, and more!